createdAt,value
2018-12-23T00:01:58.022Z,16.60
2018-12-23T00:04:27.874Z,16.77
2018-12-23T00:07:00.081Z,15.97
2018-12-23T00:09:29.887Z,16.00
2018-12-23T00:11:59.643Z,15.93
2018-12-23T00:14:29.448Z,16.60
2018-12-23T00:16:59.358Z,15.63
2018-12-23T00:19:29.066Z,13.40
2018-12-23T00:21:58.768Z,12.97
2018-12-23T00:24:28.458Z,13.57
2018-12-23T00:26:58.225Z,13.83
2018-12-23T00:29:27.970Z,11.87
2018-12-23T00:31:57.861Z,10.50
2018-12-23T00:34:27.581Z,10.80
2018-12-23T00:36:58.640Z,10.70
2018-12-23T00:39:29.666Z,9.00
2018-12-23T00:41:59.426Z,9.77
2018-12-23T00:44:31.650Z,8.53
2018-12-23T00:47:01.366Z,8.00
2018-12-23T00:49:31.222Z,8.07
2018-12-23T00:52:01.006Z,7.00
2018-12-23T00:54:31.945Z,7.30
2018-12-23T00:57:01.595Z,7.40
2018-12-23T00:59:31.250Z,7.43
2018-12-23T01:02:01.969Z,7.03
2018-12-23T01:04:31.621Z,8.07
2018-12-23T01:07:02.329Z,7.80
2018-12-23T01:09:31.988Z,8.47
2018-12-23T01:12:01.660Z,8.83
2018-12-23T01:14:31.919Z,10.13
2018-12-23T01:17:01.554Z,11.10
2018-12-23T01:19:31.224Z,12.13
2018-12-23T01:22:00.860Z,9.60
2018-12-23T01:24:30.517Z,11.13
2018-12-23T01:27:00.156Z,11.90
2018-12-23T01:29:29.833Z,10.93
2018-12-23T01:31:59.524Z,11.50
2018-12-23T01:34:36.906Z,11.63
2018-12-23T01:36:58.800Z,10.83
2018-12-23T01:39:29.061Z,11.30
2018-12-23T01:41:58.750Z,10.30
2018-12-23T01:44:29.531Z,12.33
2018-12-23T01:46:59.245Z,11.60
2018-12-23T01:49:28.989Z,12.93
2018-12-23T01:51:58.606Z,11.63
2018-12-23T01:54:28.283Z,11.63
2018-12-23T01:56:57.923Z,10.80
2018-12-23T01:59:27.574Z,11.37
2018-12-23T02:01:57.228Z,9.27
2018-12-23T02:04:26.971Z,11.30
2018-12-23T02:06:56.637Z,9.47
2018-12-23T02:09:26.309Z,10.10
2018-12-23T02:11:55.965Z,9.23
2018-12-23T02:14:25.601Z,7.93
2018-12-23T02:16:55.247Z,8.63
2018-12-23T02:19:24.955Z,8.03
2018-12-23T02:21:54.604Z,10.30
2018-12-23T02:24:24.718Z,9.50
2018-12-23T02:26:54.837Z,10.33
2018-12-23T02:29:24.472Z,10.70
2018-12-23T02:31:54.156Z,10.73
2018-12-23T02:34:23.822Z,10.90
2018-12-23T02:36:53.466Z,10.77
2018-12-23T02:39:23.119Z,12.73
2018-12-23T02:41:52.747Z,12.40
2018-12-23T02:44:22.489Z,12.10
2018-12-23T02:46:52.140Z,12.23
2018-12-23T02:49:21.800Z,11.63
2018-12-23T02:51:51.434Z,11.67
2018-12-23T02:54:21.546Z,11.20
2018-12-23T02:56:51.234Z,11.83
2018-12-23T02:59:20.889Z,11.53
2018-12-23T03:01:50.580Z,11.60
2018-12-23T03:04:20.206Z,11.53
2018-12-23T03:06:49.885Z,12.27
2018-12-23T03:09:20.757Z,11.43
2018-12-23T03:11:50.411Z,11.63
2018-12-23T03:14:20.050Z,10.73
2018-12-23T03:16:49.701Z,10.80
2018-12-23T03:19:19.329Z,10.70
2018-12-23T03:21:49.013Z,10.40
2018-12-23T03:24:18.686Z,9.73
2018-12-23T03:26:48.364Z,10.17
2018-12-23T03:29:18.011Z,9.43
2018-12-23T03:31:47.692Z,10.43
2018-12-23T03:34:17.363Z,9.87
2018-12-23T03:36:47.042Z,9.50
2018-12-23T03:39:16.687Z,11.00
2018-12-23T03:41:46.385Z,10.83
2018-12-23T03:44:16.140Z,9.73
2018-12-23T03:46:45.800Z,9.73
2018-12-23T03:49:15.455Z,10.07
2018-12-23T03:51:45.695Z,9.53
2018-12-23T03:54:15.341Z,8.97
2018-12-23T03:56:45.016Z,8.80
2018-12-23T03:59:14.654Z,5.80
2018-12-23T04:01:44.334Z,7.20
2018-12-23T04:04:14.020Z,7.57
2018-12-23T04:06:43.672Z,7.50
2018-12-23T04:09:13.402Z,7.10
2018-12-23T04:11:43.022Z,7.10
2018-12-23T04:14:12.674Z,7.13
2018-12-23T04:16:42.303Z,7.17
2018-12-23T04:19:11.925Z,6.57
2018-12-23T04:21:41.590Z,6.60
2018-12-23T04:24:11.212Z,7.10
2018-12-23T04:26:40.837Z,7.70
2018-12-23T04:29:10.505Z,7.83
2018-12-23T04:31:40.143Z,7.80
2018-12-23T04:34:09.794Z,7.77
2018-12-23T04:36:39.558Z,7.27
2018-12-23T04:39:09.193Z,6.73
2018-12-23T04:41:38.934Z,6.80
2018-12-23T04:44:08.554Z,6.63
2018-12-23T04:46:38.224Z,7.03
2018-12-23T04:49:07.940Z,6.23
2018-12-23T04:51:37.611Z,5.53
2018-12-23T04:54:07.291Z,5.80
2018-12-23T04:56:36.958Z,5.40
2018-12-23T04:59:06.586Z,5.67
2018-12-23T05:01:36.194Z,5.73
2018-12-23T05:04:05.859Z,6.47
2018-12-23T05:06:43.010Z,5.77
2018-12-23T05:09:06.342Z,5.90
2018-12-23T05:11:36.058Z,5.50
2018-12-23T05:14:05.712Z,5.40
2018-12-23T05:16:35.363Z,5.67
2018-12-23T05:19:05.106Z,5.70
2018-12-23T05:21:34.807Z,5.40
2018-12-23T05:24:04.462Z,6.07
2018-12-23T05:26:34.079Z,5.93
2018-12-23T05:29:03.756Z,6.33
2018-12-23T05:31:33.421Z,6.50
2018-12-23T05:34:03.091Z,6.23
2018-12-23T05:36:32.722Z,6.03
2018-12-23T05:39:02.374Z,5.80
2018-12-23T05:41:32.018Z,6.50
2018-12-23T05:44:01.739Z,6.90
2018-12-23T05:46:31.397Z,6.33
2018-12-23T05:49:01.098Z,9.07
2018-12-23T05:51:30.757Z,6.83
2018-12-23T05:54:00.382Z,7.27
2018-12-23T05:56:30.619Z,5.73
2018-12-23T05:59:00.273Z,5.57
2018-12-23T06:01:30.073Z,5.27
2018-12-23T06:03:59.647Z,4.80
2018-12-23T06:06:30.415Z,5.90
2018-12-23T06:09:00.086Z,6.27
2018-12-23T06:11:29.709Z,5.40
2018-12-23T06:13:59.394Z,5.43
2018-12-23T06:16:29.041Z,5.60
2018-12-23T06:19:00.108Z,6.63
2018-12-23T06:21:29.772Z,6.00
2018-12-23T06:24:00.399Z,5.83
2018-12-23T06:26:31.383Z,6.53
2018-12-23T06:29:01.014Z,6.53
2018-12-23T06:31:30.663Z,6.53
2018-12-23T06:34:01.544Z,7.70
2018-12-23T06:36:31.176Z,9.50
2018-12-23T06:39:00.904Z,8.10
2018-12-23T06:41:30.533Z,9.30
2018-12-23T06:44:01.442Z,8.33
2018-12-23T06:46:31.071Z,9.47
2018-12-23T06:49:02.047Z,9.27
2018-12-23T06:51:32.910Z,9.60
2018-12-23T06:54:02.580Z,8.60
2018-12-23T06:56:32.230Z,9.93
2018-12-23T06:59:01.905Z,10.30
2018-12-23T07:01:32.846Z,10.73
2018-12-23T07:04:02.505Z,9.43
2018-12-23T07:06:32.180Z,11.97
2018-12-23T07:09:01.958Z,15.83
2018-12-23T07:11:31.654Z,17.37
2018-12-23T07:14:01.308Z,17.60
2018-12-23T07:16:30.946Z,15.57
2018-12-23T07:19:01.836Z,15.27
2018-12-23T07:21:31.522Z,14.70
2018-12-23T07:24:01.175Z,13.60
2018-12-23T07:26:31.054Z,15.57
2018-12-23T07:29:03.138Z,15.23
2018-12-23T07:31:33.199Z,16.30
2018-12-23T07:34:02.859Z,20.07
2018-12-23T07:36:32.944Z,27.33
2018-12-23T07:39:07.033Z,22.17
2018-12-23T07:41:37.087Z,23.60
2018-12-23T07:44:06.747Z,26.70
2018-12-23T07:46:36.537Z,26.87
2018-12-23T07:49:07.706Z,21.43
2018-12-23T07:51:37.679Z,17.97
2018-12-23T07:54:07.475Z,13.17
2018-12-23T07:56:37.320Z,15.20
2018-12-23T07:59:07.745Z,14.57
2018-12-23T08:01:37.505Z,12.13
2018-12-23T08:04:07.416Z,10.87
2018-12-23T08:06:39.064Z,9.03
2018-12-23T08:09:10.296Z,9.20
2018-12-23T08:11:40.070Z,8.67
2018-12-23T08:14:12.412Z,8.87
2018-12-23T08:16:42.130Z,10.00
2018-12-23T08:19:14.534Z,9.83
2018-12-23T08:21:45.569Z,11.43
2018-12-23T08:24:16.526Z,12.03
2018-12-23T08:26:46.254Z,12.10
2018-12-23T08:29:17.286Z,12.13
2018-12-23T08:31:48.710Z,13.80
2018-12-23T08:34:16.639Z,12.13
2018-12-23T08:36:46.315Z,11.53
2018-12-23T08:39:16.021Z,13.23
2018-12-23T08:41:47.263Z,13.47
2018-12-23T08:44:17.009Z,12.77
2018-12-23T08:46:46.687Z,12.43
2018-12-23T08:49:16.378Z,10.77
2018-12-23T08:51:46.019Z,12.73
2018-12-23T08:54:15.693Z,12.23
2018-12-23T08:56:45.407Z,11.07
2018-12-23T08:59:15.098Z,10.03
2018-12-23T09:01:44.790Z,10.30
2018-12-23T09:04:14.449Z,10.80
2018-12-23T09:06:44.117Z,8.93
2018-12-23T09:09:13.750Z,9.43
2018-12-23T09:11:45.922Z,10.73
2018-12-23T09:14:15.605Z,10.97
2018-12-23T09:16:45.394Z,12.73
2018-12-23T09:19:15.074Z,10.77
2018-12-23T09:21:46.081Z,10.60
2018-12-23T09:24:15.722Z,10.03
2018-12-23T09:26:45.457Z,11.37
2018-12-23T09:29:16.374Z,10.03
2018-12-23T09:31:46.005Z,10.00
2018-12-23T09:34:15.708Z,10.17
2018-12-23T09:36:47.813Z,10.20
2018-12-23T09:39:16.690Z,8.80
2018-12-23T09:41:46.407Z,9.37
2018-12-23T09:44:16.157Z,9.10
2018-12-23T09:46:48.310Z,9.87
2018-12-23T09:49:18.033Z,9.00
2018-12-23T09:51:47.804Z,9.00
2018-12-23T09:54:17.722Z,8.40
2018-12-23T09:56:47.426Z,9.83
2018-12-23T09:59:17.249Z,8.87
2018-12-23T10:01:48.180Z,10.93
2018-12-23T10:04:17.831Z,9.97
2018-12-23T10:06:47.553Z,10.70
2018-12-23T10:09:18.659Z,10.93
2018-12-23T10:11:48.319Z,10.50
2018-12-23T10:14:18.008Z,11.23
2018-12-23T10:16:47.714Z,10.27
2018-12-23T10:19:17.338Z,12.13
2018-12-23T10:21:46.985Z,11.23
2018-12-23T10:24:17.795Z,13.17
2018-12-23T10:26:47.491Z,11.93
2018-12-23T10:29:17.142Z,14.13
2018-12-23T10:31:48.074Z,11.87
2018-12-23T10:34:17.960Z,12.60
2018-12-23T10:36:47.594Z,14.33
2018-12-23T10:39:17.322Z,13.07
2018-12-23T10:41:46.966Z,13.67
2018-12-23T10:44:19.130Z,13.37
2018-12-23T10:46:48.758Z,13.37
2018-12-23T10:49:18.418Z,12.30
2018-12-23T10:51:48.067Z,13.77
2018-12-23T10:54:17.695Z,14.93
2018-12-23T10:56:49.899Z,13.93
2018-12-23T10:59:19.517Z,13.93
2018-12-23T11:01:49.160Z,14.77
2018-12-23T11:04:20.150Z,14.97
2018-12-23T11:06:51.045Z,15.93
2018-12-23T11:09:20.667Z,20.87
2018-12-23T11:11:50.306Z,27.90
2018-12-23T11:14:22.447Z,25.87
2018-12-23T11:16:52.142Z,23.10
2018-12-23T11:19:21.843Z,28.97
2018-12-23T11:21:51.502Z,24.40
2018-12-23T11:24:21.239Z,31.63
2018-12-23T11:26:50.899Z,24.23
2018-12-23T11:29:20.525Z,26.40
2018-12-23T11:31:50.221Z,26.23
2018-12-23T11:34:19.926Z,27.63
2018-12-23T11:36:49.656Z,30.20
2018-12-23T11:39:20.616Z,30.37
2018-12-23T11:41:50.254Z,25.03
2018-12-23T11:44:21.174Z,27.23
2018-12-23T11:46:51.997Z,35.27
2018-12-23T11:49:21.650Z,35.63
2018-12-23T11:51:51.325Z,33.57
2018-12-23T11:54:21.012Z,37.13
2018-12-23T11:56:52.158Z,34.27
2018-12-23T11:59:22.052Z,35.97
2018-12-23T12:01:51.738Z,36.13
2018-12-23T12:04:21.433Z,38.07
2018-12-23T12:06:51.083Z,39.53
2018-12-23T12:09:20.782Z,38.27
2018-12-23T12:11:51.068Z,38.57
2018-12-23T12:14:20.361Z,40.70
2018-12-23T12:16:50.057Z,40.70
2018-12-23T12:19:19.722Z,41.43
2018-12-23T12:21:49.385Z,46.77
2018-12-23T12:24:20.405Z,47.10
2018-12-23T12:26:50.072Z,46.40
2018-12-23T12:29:19.699Z,51.50
2018-12-23T12:31:50.641Z,50.80
2018-12-23T12:34:21.585Z,51.43
2018-12-23T12:36:51.355Z,48.53
2018-12-23T12:39:21.077Z,51.13
2018-12-23T12:41:52.313Z,45.67
2018-12-23T12:44:22.007Z,42.17
2018-12-23T12:46:51.742Z,39.00
2018-12-23T12:49:21.421Z,34.90
2018-12-23T12:51:51.090Z,35.47
2018-12-23T12:54:22.159Z,33.43
2018-12-23T12:56:53.038Z,36.33
2018-12-23T12:59:22.758Z,36.03
2018-12-23T13:01:52.466Z,40.47
2018-12-23T13:04:22.146Z,42.07
2018-12-23T13:06:51.850Z,34.07
2018-12-23T13:09:23.986Z,36.07
2018-12-23T13:11:54.326Z,33.47
2018-12-23T13:14:24.003Z,31.30
2018-12-23T13:16:53.904Z,29.97
2018-12-23T13:19:23.571Z,31.93
2018-12-23T13:21:54.496Z,32.20
2018-12-23T13:24:26.638Z,32.50
2018-12-23T13:26:56.357Z,35.83
2018-12-23T13:29:28.544Z,46.00
2018-12-23T13:31:58.356Z,48.17
2018-12-23T13:34:28.113Z,40.37
2018-12-23T13:36:57.811Z,38.30
2018-12-23T13:39:27.506Z,37.93
2018-12-23T13:42:39.765Z,38.57
2018-12-23T13:45:20.939Z,39.13
2018-12-23T13:48:13.176Z,39.93
2018-12-23T13:50:59.018Z,46.40
2018-12-23T13:53:42.484Z,51.63
2018-12-23T13:56:37.242Z,46.33
2018-12-23T13:59:16.378Z,54.57
2018-12-23T14:03:02.604Z,53.93
2018-12-23T14:06:53.755Z,61.33
2018-12-23T14:09:55.002Z,50.30
2018-12-23T14:12:24.666Z,52.03
2018-12-23T14:14:55.639Z,55.87
2018-12-23T14:17:30.788Z,55.03
2018-12-23T14:20:00.525Z,60.40
2018-12-23T14:22:30.216Z,54.87
2018-12-23T14:24:59.941Z,52.27
2018-12-23T14:27:29.696Z,57.10
2018-12-23T14:29:59.417Z,59.07
2018-12-23T14:32:29.095Z,67.13
2018-12-23T14:34:59.982Z,69.13
2018-12-23T14:37:29.705Z,72.17
2018-12-23T14:40:00.750Z,86.93
2018-12-23T14:42:31.775Z,100.77
2018-12-23T14:45:01.606Z,106.73
2018-12-23T14:47:31.430Z,91.10
2018-12-23T14:50:02.394Z,99.93
2018-12-23T14:52:32.088Z,98.87
2018-12-23T14:55:01.794Z,116.17
2018-12-23T14:57:31.505Z,118.67
2018-12-23T15:00:02.506Z,123.10
2018-12-23T15:02:32.207Z,118.23
2018-12-23T15:05:01.914Z,112.57
2018-12-23T15:07:34.187Z,97.63
2018-12-23T15:10:06.933Z,87.60
2018-12-23T15:12:36.650Z,83.87
2018-12-23T15:15:06.573Z,88.13
2018-12-23T15:17:36.235Z,75.73
2018-12-23T15:20:09.673Z,63.60
2018-12-23T15:22:39.437Z,63.53
2018-12-23T15:25:09.144Z,64.00
2018-12-23T15:27:38.852Z,61.60
2018-12-23T15:30:08.562Z,53.87
2018-12-23T15:32:40.739Z,53.23
2018-12-23T15:35:10.442Z,46.63
2018-12-23T15:37:41.444Z,49.40
2018-12-23T15:40:11.122Z,59.27
2018-12-23T15:42:40.853Z,57.67
2018-12-23T15:45:10.560Z,65.87
2018-12-23T15:47:40.535Z,68.43
2018-12-23T15:50:10.405Z,67.07
2018-12-23T15:52:40.113Z,68.47
2018-12-23T15:55:11.071Z,66.57
2018-12-23T15:57:40.787Z,63.00
2018-12-23T16:00:10.462Z,65.70
2018-12-23T16:02:42.203Z,71.47
2018-12-23T16:05:13.766Z,82.60
2018-12-23T16:07:43.479Z,93.87
2018-12-23T16:10:13.223Z,97.90
2018-12-23T16:12:42.888Z,104.97
2018-12-23T16:15:12.579Z,117.70
2018-12-23T16:17:42.450Z,117.97
2018-12-23T16:20:13.836Z,111.50
2018-12-23T16:22:43.735Z,106.77
2018-12-23T16:25:14.673Z,113.80
2018-12-23T16:27:44.467Z,116.63
2018-12-23T16:30:18.033Z,115.53
2018-12-23T16:32:48.883Z,114.50
2018-12-23T16:35:18.610Z,116.47
2018-12-23T16:37:48.306Z,110.77
2018-12-23T16:40:18.005Z,104.10
2018-12-23T16:42:47.694Z,102.03
2018-12-23T16:45:17.422Z,107.37
2018-12-23T16:47:47.116Z,103.33
2018-12-23T16:50:18.073Z,93.07
2018-12-23T16:52:47.794Z,102.13
2018-12-23T16:55:17.472Z,94.23
2018-12-23T16:57:47.187Z,86.70
2018-12-23T17:00:16.871Z,74.07
2018-12-23T17:02:46.583Z,71.00
2018-12-23T17:05:19.773Z,69.60
2018-12-23T17:07:52.028Z,66.17
2018-12-23T17:10:22.844Z,68.50
2018-12-23T17:12:52.583Z,68.27
2018-12-23T17:15:22.270Z,67.63
2018-12-23T17:17:51.963Z,66.77
2018-12-23T17:20:21.672Z,59.87
2018-12-23T17:22:57.840Z,59.10
2018-12-23T17:25:29.137Z,54.83
2018-12-23T17:27:58.980Z,55.47
2018-12-23T17:30:28.657Z,58.73
2018-12-23T17:32:58.331Z,63.57
2018-12-23T17:35:30.486Z,63.90
2018-12-23T17:38:00.262Z,58.33
2018-12-23T17:40:29.932Z,60.07
2018-12-23T17:43:00.886Z,64.17
2018-12-23T17:45:30.571Z,65.77
2018-12-23T17:48:00.394Z,82.70
2018-12-23T17:50:32.526Z,68.93
2018-12-23T17:53:02.211Z,75.87
2018-12-23T17:55:33.185Z,65.90
2018-12-23T17:58:02.851Z,53.13
2018-12-23T18:00:32.623Z,51.70
2018-12-23T18:03:03.398Z,50.53
2018-12-23T18:05:34.358Z,51.50
2018-12-23T18:08:04.155Z,48.53
2018-12-23T18:10:33.870Z,47.00
2018-12-23T18:13:03.568Z,41.97
2018-12-23T18:15:34.589Z,41.20
2018-12-23T18:18:04.287Z,38.27
2018-12-23T18:20:33.990Z,37.40
2018-12-23T18:23:03.664Z,40.03
2018-12-23T18:25:33.310Z,39.13
2018-12-23T18:28:04.311Z,40.07
2018-12-23T18:30:34.011Z,41.23
2018-12-23T18:33:05.276Z,41.40
2018-12-23T18:35:36.152Z,42.73
2018-12-23T18:38:05.851Z,48.30
2018-12-23T18:40:35.521Z,53.37
2018-12-23T18:43:05.207Z,49.43
2018-12-23T18:45:34.876Z,45.87
2018-12-23T18:48:04.578Z,41.03
2018-12-23T18:50:37.998Z,37.90
2018-12-23T18:53:07.661Z,34.37
2018-12-23T18:55:37.813Z,47.90
2018-12-23T18:58:07.541Z,35.40
2018-12-23T19:00:37.427Z,33.60
2018-12-23T19:03:07.084Z,29.93
2018-12-23T19:05:36.798Z,30.57
2018-12-23T19:08:10.399Z,32.33
2018-12-23T19:12:59.472Z,33.17
2018-12-23T19:15:39.377Z,31.67
2018-12-23T19:20:24.638Z,29.30
2018-12-23T19:24:42.082Z,26.70
2018-12-23T19:27:23.567Z,22.80
2018-12-23T19:30:11.243Z,21.97
2018-12-23T19:32:54.579Z,19.63
2018-12-23T19:35:41.085Z,19.30
2018-12-23T19:38:20.838Z,20.63
2018-12-23T19:43:09.922Z,19.90
2018-12-23T19:45:53.539Z,19.37
2018-12-23T19:48:42.072Z,22.30
2018-12-23T19:52:21.473Z,23.77
2018-12-23T19:56:05.124Z,21.67
2018-12-23T19:58:45.807Z,20.37
2018-12-23T20:02:31.463Z,20.47
2018-12-23T20:05:15.411Z,27.20
2018-12-23T20:07:56.553Z,24.77
2018-12-23T20:10:40.107Z,22.93
2018-12-23T20:13:25.124Z,28.77
2018-12-23T20:18:12.376Z,30.07
2018-12-23T20:20:51.836Z,24.97
2018-12-23T20:23:38.069Z,22.87
2018-12-23T20:26:25.713Z,19.80
2018-12-23T20:29:11.000Z,19.80
2018-12-23T20:32:52.740Z,19.00
2018-12-23T20:35:36.160Z,17.83
2018-12-23T20:38:17.361Z,17.27
2018-12-23T20:40:57.261Z,18.17
2018-12-23T20:44:10.695Z,17.07
2018-12-23T20:47:27.396Z,15.67
2018-12-23T20:50:08.586Z,16.23
2018-12-23T20:52:51.570Z,17.23
2018-12-23T20:55:34.052Z,18.33
2018-12-23T20:58:13.851Z,19.30
2018-12-23T21:03:10.213Z,18.80
2018-12-23T21:05:54.751Z,20.03
2018-12-23T21:08:43.610Z,20.63
2018-12-23T21:11:37.081Z,19.90
2018-12-23T21:29:13.784Z,22.83
2018-12-23T21:31:56.929Z,19.03
2018-12-23T21:34:38.953Z,18.70
2018-12-23T21:37:23.406Z,18.77
2018-12-23T21:40:39.540Z,18.50
2018-12-23T21:43:33.221Z,18.07
2018-12-23T21:46:23.798Z,18.07
2018-12-23T21:51:25.675Z,18.90
2018-12-23T21:54:05.781Z,17.30
2018-12-23T21:56:47.691Z,17.33
2018-12-23T21:59:35.121Z,15.77
2018-12-23T22:02:21.781Z,15.57
2018-12-23T22:05:05.077Z,17.27
2018-12-23T22:07:48.095Z,17.17
2018-12-23T22:10:28.852Z,17.73
2018-12-23T22:13:10.110Z,17.50
2018-12-23T22:15:43.569Z,17.70
2018-12-23T22:18:13.370Z,19.23
2018-12-23T22:20:43.157Z,17.40
2018-12-23T22:23:12.895Z,15.60
2018-12-23T22:25:43.820Z,15.07
2018-12-23T22:28:13.520Z,14.63
2018-12-23T22:30:43.304Z,13.53
2018-12-23T22:33:14.266Z,13.60
2018-12-23T22:35:44.147Z,11.30
2018-12-23T22:38:14.183Z,12.30
2018-12-23T22:40:48.601Z,11.77
2018-12-23T22:43:18.278Z,13.23
2018-12-23T22:45:47.936Z,12.57
2018-12-23T22:48:17.677Z,12.57
2018-12-23T22:50:47.366Z,11.60
2018-12-23T22:53:18.281Z,9.93
2018-12-23T22:55:48.030Z,8.77
2018-12-23T22:58:17.713Z,9.23
2018-12-23T23:00:47.391Z,9.17
2018-12-23T23:03:17.184Z,8.53
2018-12-23T23:05:49.304Z,8.40
2018-12-23T23:08:18.985Z,7.83
2018-12-23T23:10:48.823Z,8.00
2018-12-23T23:13:18.980Z,6.50
2018-12-23T23:15:48.353Z,5.87
2018-12-23T23:18:19.282Z,7.03
2018-12-23T23:20:48.946Z,6.10
2018-12-23T23:23:18.634Z,6.57
2018-12-23T23:25:48.327Z,5.43
2018-12-23T23:28:20.472Z,3.70
2018-12-23T23:30:52.630Z,3.90
2018-12-23T23:33:24.210Z,4.37
2018-12-23T23:35:53.278Z,4.17
2018-12-23T23:38:22.990Z,4.77
2018-12-23T23:40:52.700Z,4.83
2018-12-23T23:43:22.354Z,3.30
2018-12-23T23:45:53.218Z,3.37
2018-12-23T23:48:22.889Z,4.37
2018-12-23T23:50:52.644Z,4.30
2018-12-23T23:53:22.282Z,4.33
2018-12-23T23:55:51.954Z,3.37
2018-12-23T23:58:21.631Z,4.10
